createdAt,value
2018-09-05T00:00:28.280Z,0
2018-09-05T00:01:28.862Z,0
2018-09-05T00:02:29.452Z,0
2018-09-05T00:03:30.029Z,0
2018-09-05T00:04:30.664Z,0
2018-09-05T00:05:31.301Z,0
2018-09-05T00:06:31.881Z,0
2018-09-05T00:07:32.470Z,0
2018-09-05T00:08:33.049Z,0
2018-09-05T00:09:33.627Z,0
2018-09-05T00:11:34.849Z,0
2018-09-05T00:12:35.483Z,0
2018-09-05T00:13:36.119Z,0
2018-09-05T00:14:36.702Z,0
2018-09-05T00:15:37.285Z,0
2018-09-05T00:16:37.874Z,0
2018-09-05T00:17:38.461Z,0
2018-09-05T00:18:39.045Z,0
2018-09-05T00:19:39.629Z,0
2018-09-05T00:20:40.210Z,0
2018-09-05T00:21:40.801Z,0
2018-09-05T00:22:41.435Z,0
2018-09-05T00:23:42.020Z,0
2018-09-05T00:24:42.605Z,0
2018-09-05T00:25:43.190Z,0
2018-09-05T00:26:43.776Z,0
2018-09-05T00:27:44.361Z,0
2018-09-05T00:28:44.946Z,0
2018-09-05T00:29:45.583Z,0
2018-09-05T00:30:46.214Z,0
2018-09-05T00:31:46.803Z,0
2018-09-05T00:32:47.390Z,0
2018-09-05T00:33:47.977Z,0
2018-09-05T00:34:48.563Z,0
2018-09-05T00:35:49.155Z,0
2018-09-05T00:36:49.726Z,0
2018-09-05T00:37:50.361Z,0
2018-09-05T00:38:50.896Z,0
2018-09-05T00:39:51.531Z,0
2018-09-05T00:40:52.115Z,0
2018-09-05T00:41:52.700Z,0
2018-09-05T00:42:53.281Z,0
2018-09-05T00:43:53.913Z,0
2018-09-05T00:44:54.544Z,0
2018-09-05T00:45:55.132Z,0
2018-09-05T00:46:55.719Z,0
2018-09-05T00:47:56.299Z,0
2018-09-05T00:48:56.938Z,0
2018-09-05T00:49:57.564Z,0
2018-09-05T00:50:58.151Z,0
2018-09-05T00:51:58.741Z,0
2018-09-05T00:52:59.367Z,0
2018-09-05T00:53:59.954Z,0
2018-09-05T00:55:00.541Z,0
2018-09-05T00:56:01.123Z,0
2018-09-05T00:57:01.762Z,0
2018-09-05T00:58:02.339Z,0
2018-09-05T00:59:02.925Z,0
2018-09-05T01:00:03.512Z,0
2018-09-05T01:01:04.146Z,0
2018-09-05T01:02:04.730Z,0
2018-09-05T01:03:05.318Z,0
2018-09-05T01:04:05.905Z,0
2018-09-05T01:05:06.488Z,0
2018-09-05T01:06:07.075Z,0
2018-09-05T01:07:07.660Z,0
2018-09-05T01:08:08.248Z,0
2018-09-05T01:09:08.829Z,0
2018-09-05T01:10:09.417Z,0
2018-09-05T01:11:09.996Z,0
2018-09-05T01:12:10.583Z,0
2018-09-05T01:13:11.219Z,0
2018-09-05T01:14:11.847Z,0
2018-09-05T01:15:12.436Z,0
2018-09-05T01:16:13.071Z,0
2018-09-05T01:17:13.655Z,0
2018-09-05T01:18:14.246Z,0
2018-09-05T01:19:14.827Z,0
2018-09-05T01:20:15.409Z,0
2018-09-05T01:21:15.989Z,0
2018-09-05T01:22:16.626Z,0
2018-09-05T01:23:17.213Z,0
2018-09-05T01:24:17.834Z,0
2018-09-05T01:25:18.387Z,0
2018-09-05T01:26:19.016Z,0
2018-09-05T01:27:19.603Z,0
2018-09-05T01:28:20.191Z,0
2018-09-05T01:29:20.821Z,0
2018-09-05T01:30:21.405Z,0
2018-09-05T01:31:22.049Z,0
2018-09-05T01:32:22.682Z,0
2018-09-05T01:33:23.258Z,0
2018-09-05T01:34:23.840Z,0
2018-09-05T01:35:24.436Z,0
2018-09-05T01:36:25.021Z,0
2018-09-05T01:37:25.607Z,0
2018-09-05T01:38:26.187Z,0
2018-09-05T01:39:31.980Z,0
2018-09-05T01:40:32.566Z,0
2018-09-05T01:41:33.150Z,0
2018-09-05T01:42:33.736Z,0
2018-09-05T01:43:34.323Z,0
2018-09-05T01:44:34.916Z,0
2018-09-05T01:45:35.500Z,0
2018-09-05T01:46:36.136Z,0
2018-09-05T01:47:36.716Z,0
2018-09-05T01:48:37.310Z,0
2018-09-05T01:49:38.045Z,0
2018-09-05T01:50:38.681Z,0
2018-09-05T01:51:39.261Z,0
2018-09-05T01:52:39.843Z,0
2018-09-05T01:53:40.435Z,0
2018-09-05T01:54:41.018Z,0
2018-09-05T01:55:41.603Z,0
2018-09-05T01:56:42.188Z,0
2018-09-05T01:57:42.778Z,0
2018-09-05T01:58:43.361Z,0
2018-09-05T01:59:43.949Z,0
2018-09-05T02:00:44.533Z,0
2018-09-05T02:01:45.120Z,0
2018-09-05T02:02:45.727Z,0
2018-09-05T02:03:46.284Z,0
2018-09-05T02:04:46.922Z,0
2018-09-05T02:05:47.559Z,0
2018-09-05T02:06:48.150Z,0
2018-09-05T02:07:48.779Z,0
2018-09-05T02:08:49.366Z,0
2018-09-05T02:09:49.958Z,0
2018-09-05T02:10:50.538Z,0
2018-09-05T02:11:51.120Z,0
2018-09-05T02:12:51.702Z,0
2018-09-05T02:13:52.290Z,0
2018-09-05T02:14:52.877Z,0
2018-09-05T02:15:53.464Z,0
2018-09-05T02:16:54.043Z,0
2018-09-05T02:17:54.683Z,0
2018-09-05T02:18:55.268Z,0
2018-09-05T02:19:55.853Z,0
2018-09-05T02:20:56.439Z,0
2018-09-05T02:21:57.020Z,0
2018-09-05T02:22:57.600Z,0
2018-09-05T02:23:58.230Z,0
2018-09-05T02:24:58.869Z,0
2018-09-05T02:25:59.506Z,0
2018-09-05T02:27:00.090Z,0
2018-09-05T02:28:00.673Z,0
2018-09-05T02:29:01.259Z,0
2018-09-05T02:30:01.850Z,0
2018-09-05T02:31:02.465Z,0
2018-09-05T02:32:03.057Z,0
2018-09-05T02:33:03.685Z,0
2018-09-05T02:34:04.309Z,0
2018-09-05T02:35:04.900Z,0
2018-09-05T02:36:05.485Z,0
2018-09-05T02:37:06.069Z,0
2018-09-05T02:38:06.656Z,0
2018-09-05T02:39:07.238Z,0
2018-09-05T02:40:07.917Z,0
2018-09-05T02:41:08.499Z,0
2018-09-05T02:42:09.132Z,0
2018-09-05T02:43:09.720Z,0
2018-09-05T02:44:10.302Z,0
2018-09-05T02:45:10.889Z,0
2018-09-05T02:46:11.469Z,0
2018-09-05T02:47:12.105Z,0
2018-09-05T02:48:12.688Z,0
2018-09-05T02:49:13.275Z,0
2018-09-05T02:50:13.863Z,0
2018-09-05T02:51:14.495Z,0
2018-09-05T02:52:15.081Z,0
2018-09-05T02:53:15.662Z,0
2018-09-05T02:54:16.244Z,0
2018-09-05T02:55:16.881Z,0
2018-09-05T02:56:17.468Z,0
2018-09-05T02:57:18.053Z,0
2018-09-05T02:58:18.634Z,0
2018-09-05T02:59:19.221Z,0
2018-09-05T03:00:19.808Z,0
2018-09-05T03:01:20.388Z,0
2018-09-05T03:02:21.073Z,0
2018-09-05T03:03:21.656Z,0
2018-09-05T03:04:22.240Z,0
2018-09-05T03:05:22.821Z,0
2018-09-05T03:06:23.412Z,0
2018-09-05T03:07:24.001Z,0
2018-09-05T03:08:24.629Z,0
2018-09-05T03:09:25.278Z,0
2018-09-05T03:10:25.846Z,0
2018-09-05T03:11:26.436Z,0
2018-09-05T03:12:27.068Z,0
2018-09-05T03:13:27.654Z,0
2018-09-05T03:14:28.282Z,0
2018-09-05T03:15:28.871Z,0
2018-09-05T03:16:29.456Z,0
2018-09-05T03:17:30.041Z,0
2018-09-05T03:18:30.631Z,0
2018-09-05T03:19:31.263Z,0
2018-09-05T03:20:31.845Z,0
2018-09-05T03:21:32.433Z,0
2018-09-05T03:22:33.007Z,0
2018-09-05T03:23:33.642Z,0
2018-09-05T03:24:34.179Z,0
2018-09-05T03:25:34.765Z,0
2018-09-05T03:26:35.355Z,0
2018-09-05T03:27:35.939Z,0
2018-09-05T03:28:36.527Z,0
2018-09-05T03:29:37.156Z,0
2018-09-05T03:30:37.742Z,0
2018-09-05T03:31:38.375Z,0
2018-09-05T03:32:39.103Z,0
2018-09-05T03:33:39.544Z,0
2018-09-05T03:34:40.129Z,0
2018-09-05T03:35:40.762Z,0
2018-09-05T03:36:41.341Z,0
2018-09-05T03:37:41.929Z,0
2018-09-05T03:38:42.517Z,0
2018-09-05T03:39:43.101Z,0
2018-09-05T03:40:43.687Z,0
2018-09-05T03:41:44.274Z,0
2018-09-05T03:42:44.855Z,0
2018-09-05T03:43:45.443Z,0
2018-09-05T03:44:46.029Z,0
2018-09-05T03:45:46.665Z,0
2018-09-05T03:46:47.250Z,0
2018-09-05T03:47:47.831Z,0
2018-09-05T03:48:48.420Z,0
2018-09-05T03:49:49.053Z,0
2018-09-05T03:50:49.589Z,0
2018-09-05T03:51:50.174Z,0
2018-09-05T03:52:50.760Z,0
2018-09-05T03:53:51.349Z,0
2018-09-05T03:54:52.032Z,0
2018-09-05T03:55:52.612Z,0
2018-09-05T03:56:53.197Z,0
2018-09-05T03:57:53.782Z,0
2018-09-05T03:58:54.419Z,0
2018-09-05T03:59:55.004Z,0
2018-09-05T04:00:55.590Z,0
2018-09-05T04:01:56.264Z,0
2018-09-05T04:02:56.853Z,0
2018-09-05T04:03:57.438Z,0
2018-09-05T04:04:58.076Z,0
2018-09-05T04:05:58.610Z,0
2018-09-05T04:06:59.187Z,0
2018-09-05T04:07:59.769Z,0
2018-09-05T04:09:00.352Z,0
2018-09-05T04:10:00.986Z,0
2018-09-05T04:11:01.575Z,0
2018-09-05T04:12:02.186Z,0
2018-09-05T04:13:02.741Z,0
2018-09-05T04:14:03.379Z,0
2018-09-05T04:15:03.961Z,0
2018-09-05T04:16:04.546Z,0
2018-09-05T04:17:05.135Z,0
2018-09-05T04:18:05.722Z,0
2018-09-05T04:19:06.356Z,0
2018-09-05T04:20:06.945Z,0
2018-09-05T04:21:07.523Z,0
2018-09-05T04:22:08.143Z,0
2018-09-05T04:23:08.692Z,0
2018-09-05T04:24:09.277Z,0
2018-09-05T04:25:09.858Z,0
2018-09-05T04:26:10.497Z,0
2018-09-05T04:27:11.135Z,0
2018-09-05T04:28:11.723Z,0
2018-09-05T04:29:12.310Z,0
2018-09-05T04:30:12.895Z,0
2018-09-05T04:31:13.531Z,0
2018-09-05T04:32:14.115Z,0
2018-09-05T04:33:14.701Z,0
2018-09-05T04:34:15.283Z,0
2018-09-05T04:35:15.870Z,0
2018-09-05T04:36:16.496Z,0
2018-09-05T04:37:17.090Z,0
2018-09-05T04:38:17.672Z,0
2018-09-05T04:39:18.254Z,0
2018-09-05T04:40:18.841Z,0
2018-09-05T04:41:19.420Z,0
2018-09-05T04:42:20.057Z,0
2018-09-05T04:43:20.637Z,0
2018-09-05T04:44:21.222Z,0
2018-09-05T04:45:21.810Z,0
2018-09-05T04:46:22.394Z,0
2018-09-05T04:47:22.976Z,0
2018-09-05T04:48:23.565Z,0
2018-09-05T04:49:24.208Z,0
2018-09-05T04:50:24.789Z,0
2018-09-05T04:51:25.372Z,0
2018-09-05T04:52:25.960Z,0
2018-09-05T04:53:26.549Z,0
2018-09-05T04:54:27.129Z,0
2018-09-05T04:55:27.718Z,0
2018-09-05T04:56:28.304Z,0
2018-09-05T04:57:28.939Z,0
2018-09-05T04:58:29.554Z,0
2018-09-05T04:59:30.115Z,0
2018-09-05T05:00:30.740Z,0
2018-09-05T05:01:31.419Z,0
2018-09-05T05:02:32.005Z,0
2018-09-05T05:03:32.588Z,0
2018-09-05T05:04:33.230Z,0
2018-09-05T05:05:33.832Z,0
2018-09-05T05:06:34.378Z,0
2018-09-05T05:07:34.965Z,0
2018-09-05T05:08:35.638Z,0
2018-09-05T05:09:36.222Z,0
2018-09-05T05:10:36.806Z,0
2018-09-05T05:11:37.390Z,0
2018-09-05T05:12:38.016Z,0
2018-09-05T05:13:38.558Z,0
2018-09-05T05:14:39.195Z,0
2018-09-05T05:15:39.778Z,0
2018-09-05T05:16:40.409Z,0
2018-09-05T05:17:40.989Z,0
2018-09-05T05:18:41.579Z,0
2018-09-05T05:19:42.165Z,0
2018-09-05T05:20:42.801Z,0
2018-09-05T05:21:43.435Z,0
2018-09-05T05:22:44.020Z,0
2018-09-05T05:23:44.604Z,0
2018-09-05T05:24:45.192Z,0
2018-09-05T05:25:45.775Z,0
2018-09-05T05:26:46.409Z,0
2018-09-05T05:27:46.993Z,0
2018-09-05T05:28:47.629Z,0
2018-09-05T05:29:48.210Z,0
2018-09-05T05:30:48.845Z,0
2018-09-05T05:31:49.527Z,0
2018-09-05T05:32:50.176Z,0
2018-09-05T05:33:50.750Z,0
2018-09-05T05:34:51.331Z,0
2018-09-05T05:35:51.913Z,0
2018-09-05T05:36:52.503Z,0
2018-09-05T05:37:53.081Z,0
2018-09-05T05:38:53.665Z,0
2018-09-05T05:39:54.248Z,0
2018-09-05T05:40:54.838Z,0
2018-09-05T05:41:55.423Z,0
2018-09-05T05:42:56.000Z,0
2018-09-05T05:43:56.588Z,0
2018-09-05T05:44:57.168Z,0
2018-09-05T05:45:57.761Z,0
2018-09-05T05:46:58.396Z,0
2018-09-05T05:47:58.982Z,0
2018-09-05T05:48:59.569Z,0
2018-09-05T05:50:00.200Z,0
2018-09-05T05:51:00.784Z,0
2018-09-05T05:52:01.370Z,0
2018-09-05T05:53:01.956Z,0
2018-09-05T05:54:02.691Z,0
2018-09-05T05:55:03.278Z,0
2018-09-05T05:56:03.894Z,0
2018-09-05T05:57:04.474Z,0
2018-09-05T05:58:05.057Z,0
2018-09-05T05:59:05.696Z,0
2018-09-05T06:00:06.279Z,0
2018-09-05T06:01:06.877Z,0
2018-09-05T06:02:07.450Z,0
2018-09-05T06:03:08.036Z,0
2018-09-05T06:04:08.775Z,0
2018-09-05T06:05:09.356Z,0
2018-09-05T06:06:10.025Z,0
2018-09-05T06:07:10.529Z,0
2018-09-05T06:08:11.161Z,0
2018-09-05T06:09:11.739Z,0
2018-09-05T06:10:12.329Z,0
2018-09-05T06:11:12.965Z,0
2018-09-05T06:12:13.671Z,0
2018-09-05T06:13:14.177Z,0
2018-09-05T06:14:14.763Z,0
2018-09-05T06:15:15.348Z,0
2018-09-05T06:16:15.933Z,0
2018-09-05T06:17:16.522Z,0
2018-09-05T06:18:17.107Z,0
2018-09-05T06:19:17.693Z,0
2018-09-05T06:20:18.376Z,0
2018-09-05T06:21:18.962Z,0
2018-09-05T06:22:19.547Z,0
2018-09-05T06:23:20.132Z,0
2018-09-05T06:24:20.813Z,0
2018-09-05T06:25:21.399Z,0
2018-09-05T06:26:22.034Z,0
2018-09-05T06:27:22.613Z,0
2018-09-05T06:28:23.204Z,0
2018-09-05T06:29:23.936Z,0
2018-09-05T06:30:24.647Z,0
2018-09-05T06:31:25.147Z,0
2018-09-05T06:32:25.730Z,0
2018-09-05T06:33:26.319Z,0
2018-09-05T06:34:26.904Z,0
2018-09-05T06:35:27.488Z,0
2018-09-05T06:36:28.073Z,0
2018-09-05T06:37:28.654Z,0
2018-09-05T06:38:29.252Z,0
2018-09-05T06:39:29.879Z,0
2018-09-05T06:40:30.459Z,0
2018-09-05T06:41:31.047Z,0
2018-09-05T06:42:31.628Z,0
2018-09-05T06:43:32.214Z,0
2018-09-05T06:44:32.801Z,0
2018-09-05T06:45:33.541Z,0
2018-09-05T06:46:34.058Z,0
2018-09-05T06:47:34.643Z,0
2018-09-05T06:48:35.280Z,0
2018-09-05T06:49:35.866Z,0
2018-09-05T06:50:36.449Z,0
2018-09-05T06:51:37.032Z,0
2018-09-05T06:52:37.619Z,0
2018-09-05T06:53:38.201Z,0
2018-09-05T06:54:38.784Z,0
2018-09-05T06:55:39.419Z,0
2018-09-05T06:56:40.056Z,0
2018-09-05T06:57:40.640Z,0
2018-09-05T06:58:41.218Z,0
2018-09-05T06:59:41.804Z,0
2018-09-05T07:00:42.391Z,0
2018-09-05T07:01:43.025Z,0
2018-09-05T07:02:43.611Z,0
2018-09-05T07:03:44.344Z,0
2018-09-05T07:04:44.864Z,0
2018-09-05T07:05:45.446Z,0
2018-09-05T07:06:46.036Z,0
2018-09-05T07:07:46.617Z,0
2018-09-05T07:08:47.204Z,0
2018-09-05T07:09:47.788Z,0
2018-09-05T07:10:48.420Z,0
2018-09-05T07:11:48.998Z,0
2018-09-05T07:12:49.584Z,0
2018-09-05T07:13:50.169Z,0
2018-09-05T07:14:50.750Z,0
2018-09-05T07:15:51.387Z,0
2018-09-05T07:16:51.966Z,0
2018-09-05T07:17:52.552Z,0
2018-09-05T07:18:53.190Z,0
2018-09-05T07:19:53.818Z,0
2018-09-05T07:21:05.683Z,0
2018-09-05T07:21:55.028Z,0
2018-09-05T07:22:55.564Z,0
2018-09-05T07:23:56.153Z,0
2018-09-05T07:24:56.754Z,0
2018-09-05T07:25:57.359Z,0
2018-09-05T07:26:57.943Z,0
2018-09-05T07:27:58.528Z,0
2018-09-05T07:28:59.116Z,0
2018-09-05T07:29:59.702Z,0
2018-09-05T07:31:00.478Z,0
2018-09-05T07:32:00.873Z,0
2018-09-05T07:33:01.502Z,4
2018-09-05T07:34:02.084Z,4
2018-09-05T07:35:02.717Z,4
2018-09-05T07:36:03.304Z,4
2018-09-05T07:37:03.892Z,4
2018-09-05T07:38:04.471Z,4
2018-09-05T07:39:05.110Z,4
2018-09-05T07:40:05.688Z,4
2018-09-05T07:41:06.276Z,4
2018-09-05T07:42:06.857Z,8
2018-09-05T07:43:07.440Z,4
2018-09-05T07:44:08.026Z,4
2018-09-05T07:45:08.613Z,8
2018-09-05T07:46:09.199Z,4
2018-09-05T07:47:09.782Z,4
2018-09-05T07:48:10.364Z,4
2018-09-05T07:49:11.003Z,4
2018-09-05T07:50:11.634Z,4
2018-09-05T07:51:12.217Z,8
2018-09-05T07:52:12.799Z,8
2018-09-05T07:53:13.377Z,8
2018-09-05T07:54:13.965Z,8
2018-09-05T07:55:14.557Z,4
2018-09-05T07:56:15.141Z,4
2018-09-05T07:57:15.733Z,4
2018-09-05T07:58:16.352Z,4
2018-09-05T07:59:16.935Z,4
2018-09-05T08:00:17.521Z,4
2018-09-05T08:01:18.147Z,4
2018-09-05T08:02:18.734Z,4
2018-09-05T08:03:19.317Z,4
2018-09-05T08:04:19.898Z,8
2018-09-05T08:05:20.479Z,8
2018-09-05T08:06:21.066Z,8
2018-09-05T08:07:21.698Z,8
2018-09-05T08:08:22.286Z,8
2018-09-05T08:09:22.871Z,8
2018-09-05T08:10:23.459Z,8
2018-09-05T08:11:24.036Z,8
2018-09-05T08:12:24.623Z,8
2018-09-05T08:13:25.260Z,8
2018-09-05T08:14:25.847Z,8
2018-09-05T08:15:26.433Z,8
2018-09-05T08:16:27.011Z,8
2018-09-05T08:17:27.644Z,8
2018-09-05T08:18:28.226Z,8
2018-09-05T08:19:28.810Z,8
2018-09-05T08:20:29.393Z,8
2018-09-05T08:21:29.983Z,8
2018-09-05T08:22:30.565Z,8
2018-09-05T08:23:31.146Z,8
2018-09-05T08:24:31.933Z,8
2018-09-05T08:25:32.465Z,8
2018-09-05T08:26:33.054Z,8
2018-09-05T08:27:33.648Z,8
2018-09-05T08:28:34.319Z,8
2018-09-05T08:29:34.906Z,8
2018-09-05T08:30:35.493Z,8
2018-09-05T08:31:36.078Z,12
2018-09-05T08:32:36.664Z,12
2018-09-05T08:33:37.245Z,12
2018-09-05T08:34:37.925Z,12
2018-09-05T08:35:38.662Z,12
2018-09-05T08:36:39.251Z,12
2018-09-05T08:37:39.761Z,12
2018-09-05T08:38:40.226Z,12
2018-09-05T08:39:40.797Z,12
2018-09-05T08:40:41.379Z,12
2018-09-05T08:41:41.977Z,8
2018-09-05T08:42:42.616Z,8
2018-09-05T08:43:43.359Z,12
2018-09-05T08:44:43.913Z,12
2018-09-05T08:45:44.622Z,12
2018-09-05T08:46:44.948Z,8
2018-09-05T08:47:45.600Z,12
2018-09-05T08:48:46.153Z,12
2018-09-05T08:49:46.772Z,12
2018-09-05T08:50:47.403Z,12
2018-09-05T08:51:47.972Z,12
2018-09-05T08:52:48.634Z,12
2018-09-05T08:53:49.124Z,12
2018-09-05T08:54:49.710Z,12
2018-09-05T08:55:50.367Z,12
2018-09-05T08:56:50.887Z,12
2018-09-05T08:57:51.517Z,12
2018-09-05T08:58:52.274Z,16
2018-09-05T08:59:52.839Z,16
2018-09-05T09:00:53.420Z,16
2018-09-05T09:01:54.007Z,12
2018-09-05T09:02:54.621Z,12
2018-09-05T09:03:55.181Z,12
2018-09-05T09:04:55.844Z,12
2018-09-05T09:06:01.402Z,12
2018-09-05T09:07:01.992Z,16
2018-09-05T09:08:02.623Z,16
2018-09-05T09:09:03.212Z,12
2018-09-05T09:10:03.798Z,16
2018-09-05T09:11:04.384Z,16
2018-09-05T09:12:04.965Z,16
2018-09-05T09:13:05.592Z,16
2018-09-05T09:14:06.231Z,16
2018-09-05T09:15:06.818Z,16
2018-09-05T09:16:07.399Z,16
2018-09-05T09:17:07.988Z,20
2018-09-05T09:18:08.580Z,16
2018-09-05T09:19:09.162Z,16
2018-09-05T09:20:09.843Z,20
2018-09-05T09:21:10.429Z,16
2018-09-05T09:22:11.056Z,16
2018-09-05T09:23:11.645Z,16
2018-09-05T09:24:12.232Z,12
2018-09-05T09:25:12.821Z,16
2018-09-05T09:26:13.404Z,12
2018-09-05T09:27:13.992Z,12
2018-09-05T09:28:14.644Z,12
2018-09-05T09:29:15.268Z,12
2018-09-05T09:30:15.857Z,12
2018-09-05T09:31:16.443Z,8
2018-09-05T09:32:17.074Z,12
2018-09-05T09:33:17.666Z,16
2018-09-05T09:34:18.248Z,16
2018-09-05T09:35:18.893Z,12
2018-09-05T09:36:19.469Z,12
2018-09-05T09:37:20.047Z,12
2018-09-05T09:38:20.635Z,12
2018-09-05T09:39:21.223Z,16
2018-09-05T09:40:21.812Z,16
2018-09-05T09:41:22.491Z,16
2018-09-05T09:42:23.075Z,16
2018-09-05T09:43:23.665Z,16
2018-09-05T09:44:24.256Z,16
2018-09-05T09:45:24.887Z,16
2018-09-05T09:46:25.470Z,16
2018-09-05T09:47:26.152Z,12
2018-09-05T09:48:26.743Z,12
2018-09-05T09:49:27.327Z,12
2018-09-05T09:50:27.908Z,20
2018-09-05T09:51:28.499Z,16
2018-09-05T09:52:29.085Z,20
2018-09-05T09:53:29.668Z,20
2018-09-05T09:54:30.259Z,12
2018-09-05T09:55:30.844Z,12
2018-09-05T09:56:31.444Z,20
2018-09-05T09:57:32.017Z,20
2018-09-05T09:58:32.604Z,20
2018-09-05T09:59:33.242Z,20
2018-09-05T10:00:33.824Z,20
2018-09-05T10:01:34.408Z,20
2018-09-05T10:02:35.048Z,20
2018-09-05T10:03:35.966Z,20
2018-09-05T10:04:36.372Z,20
2018-09-05T10:05:36.960Z,20
2018-09-05T10:06:37.590Z,20
2018-09-05T10:07:38.182Z,20
2018-09-05T10:08:38.762Z,20
2018-09-05T10:09:39.376Z,20
2018-09-05T10:10:40.009Z,20
2018-09-05T10:11:40.525Z,20
2018-09-05T10:12:41.109Z,20
2018-09-05T10:13:41.693Z,20
2018-09-05T10:14:42.328Z,20
2018-09-05T10:15:42.911Z,20
2018-09-05T10:16:43.508Z,20
2018-09-05T10:17:44.133Z,20
2018-09-05T10:18:44.722Z,20
2018-09-05T10:19:45.357Z,20
2018-09-05T10:20:45.988Z,20
2018-09-05T10:21:46.575Z,24
2018-09-05T10:22:47.164Z,20
2018-09-05T10:23:47.746Z,20
2018-09-05T10:24:48.380Z,20
2018-09-05T10:25:48.961Z,16
2018-09-05T10:26:49.551Z,20
2018-09-05T10:27:50.134Z,16
2018-09-05T10:28:50.720Z,20
2018-09-05T10:29:51.308Z,20
2018-09-05T10:30:51.942Z,24
2018-09-05T10:31:52.591Z,24
2018-09-05T10:32:53.164Z,24
2018-09-05T10:33:53.751Z,20
2018-09-05T10:34:54.337Z,20
2018-09-05T10:35:54.925Z,20
2018-09-05T10:36:55.513Z,20
2018-09-05T10:37:56.153Z,16
2018-09-05T10:38:56.738Z,20
2018-09-05T10:39:57.325Z,24
2018-09-05T10:40:57.908Z,20
2018-09-05T10:41:58.550Z,20
2018-09-05T10:42:59.137Z,20
2018-09-05T10:43:59.721Z,16
2018-09-05T10:45:00.303Z,24
2018-09-05T10:46:00.888Z,24
2018-09-05T10:47:01.470Z,20
2018-09-05T10:48:02.057Z,20
2018-09-05T10:49:02.685Z,20
2018-09-05T10:50:03.276Z,20
2018-09-05T10:51:03.861Z,20
2018-09-05T10:52:04.454Z,20
2018-09-05T10:53:05.033Z,20
2018-09-05T10:54:05.616Z,20
2018-09-05T10:55:06.296Z,16
2018-09-05T10:56:06.881Z,16
2018-09-05T10:57:07.469Z,16
2018-09-05T10:58:08.160Z,16
2018-09-05T10:59:08.687Z,20
2018-09-05T11:00:09.315Z,20
2018-09-05T11:01:09.900Z,16
2018-09-05T11:02:10.481Z,20
2018-09-05T11:03:11.072Z,20
2018-09-05T11:04:11.672Z,24
2018-09-05T11:05:12.254Z,28
2018-09-05T11:06:12.883Z,24
2018-09-05T11:07:13.472Z,28
2018-09-05T11:08:14.059Z,28
2018-09-05T11:09:14.645Z,28
2018-09-05T11:10:15.283Z,24
2018-09-05T11:11:15.869Z,24
2018-09-05T11:12:16.459Z,24
2018-09-05T11:13:17.047Z,24
2018-09-05T11:14:17.632Z,28
2018-09-05T11:15:18.213Z,28
2018-09-05T11:16:18.797Z,28
2018-09-05T11:17:19.389Z,28
2018-09-05T11:18:19.974Z,28
2018-09-05T11:19:20.558Z,24
2018-09-05T11:20:21.146Z,28
2018-09-05T11:21:21.837Z,24
2018-09-05T11:22:22.363Z,28
2018-09-05T11:23:22.947Z,24
2018-09-05T11:24:23.531Z,24
2018-09-05T11:25:24.164Z,24
2018-09-05T11:26:24.805Z,24
2018-09-05T11:27:25.440Z,24
2018-09-05T11:28:26.071Z,24
2018-09-05T11:29:26.655Z,28
2018-09-05T11:30:27.293Z,28
2018-09-05T11:31:27.984Z,28
2018-09-05T11:32:28.715Z,28
2018-09-05T11:33:29.296Z,28
2018-09-05T11:34:29.885Z,28
2018-09-05T11:35:30.475Z,28
2018-09-05T11:36:31.061Z,24
2018-09-05T11:37:31.642Z,28
2018-09-05T11:38:32.227Z,24
2018-09-05T11:39:32.812Z,28
2018-09-05T11:40:33.398Z,24
2018-09-05T11:41:33.984Z,16
2018-09-05T11:42:34.568Z,24
2018-09-05T11:43:35.158Z,24
2018-09-05T11:44:35.793Z,28
2018-09-05T11:45:36.375Z,28
2018-09-05T11:46:36.962Z,24
2018-09-05T11:47:37.550Z,24
2018-09-05T11:48:38.129Z,28
2018-09-05T11:49:38.770Z,28
2018-09-05T11:50:39.357Z,24
2018-09-05T11:51:39.943Z,24
2018-09-05T11:52:40.530Z,28
2018-09-05T11:53:41.314Z,24
2018-09-05T11:54:41.949Z,28
2018-09-05T11:55:42.537Z,28
2018-09-05T11:56:43.122Z,24
2018-09-05T11:57:43.709Z,24
2018-09-05T11:58:44.288Z,28
2018-09-05T11:59:44.881Z,24
2018-09-05T12:00:45.464Z,28
2018-09-05T12:01:46.058Z,28
2018-09-05T12:02:46.649Z,28
2018-09-05T12:03:47.222Z,24
2018-09-05T12:04:47.850Z,24
2018-09-05T12:05:48.443Z,24
2018-09-05T12:06:49.029Z,28
2018-09-05T12:07:49.619Z,28
2018-09-05T12:08:50.205Z,24
2018-09-05T12:09:50.818Z,24
2018-09-05T12:10:51.380Z,24
2018-09-05T12:11:52.016Z,24
2018-09-05T12:12:52.651Z,28
2018-09-05T12:13:53.234Z,28
2018-09-05T12:14:53.823Z,24
2018-09-05T12:15:54.416Z,28
2018-09-05T12:16:55.001Z,28
2018-09-05T12:17:55.589Z,28
2018-09-05T12:18:56.175Z,24
2018-09-05T12:19:56.766Z,28
2018-09-05T12:20:57.401Z,28
2018-09-05T12:21:57.980Z,28
2018-09-05T12:22:58.612Z,28
2018-09-05T12:23:59.204Z,28
2018-09-05T12:24:59.787Z,28
2018-09-05T12:26:00.380Z,28
2018-09-05T12:27:00.962Z,28
2018-09-05T12:28:01.552Z,28
2018-09-05T12:29:02.185Z,28
2018-09-05T12:30:02.767Z,28
2018-09-05T12:31:03.353Z,28
2018-09-05T12:32:03.951Z,28
2018-09-05T12:33:04.637Z,28
2018-09-05T12:34:05.225Z,28
2018-09-05T12:35:05.812Z,28
2018-09-05T12:36:06.391Z,28
2018-09-05T12:37:06.980Z,28
2018-09-05T12:38:07.583Z,32
2018-09-05T12:39:08.206Z,28
2018-09-05T12:40:08.792Z,28
2018-09-05T12:41:09.379Z,28
2018-09-05T12:42:09.963Z,28
2018-09-05T12:43:10.546Z,28
2018-09-05T12:44:11.330Z,28
2018-09-05T12:45:11.920Z,28
2018-09-05T12:46:12.501Z,28
2018-09-05T12:47:13.083Z,32
2018-09-05T12:48:13.674Z,32
2018-09-05T12:49:14.255Z,32
2018-09-05T12:50:14.843Z,32
2018-09-05T12:51:15.430Z,28
2018-09-05T12:52:16.013Z,32
2018-09-05T12:53:16.648Z,32
2018-09-05T12:54:17.239Z,28
2018-09-05T12:55:17.824Z,32
2018-09-05T12:56:18.414Z,32
2018-09-05T12:57:19.052Z,32
2018-09-05T12:58:19.635Z,32
2018-09-05T12:59:20.288Z,32
2018-09-05T13:00:20.863Z,32
2018-09-05T13:01:21.498Z,32
2018-09-05T13:02:22.085Z,32
2018-09-05T13:03:22.720Z,32
2018-09-05T13:04:23.303Z,32
2018-09-05T13:05:23.935Z,32
2018-09-05T13:06:24.477Z,36
2018-09-05T13:07:25.067Z,32
2018-09-05T13:08:25.653Z,36
2018-09-05T13:09:26.242Z,32
2018-09-05T13:10:26.820Z,32
2018-09-05T13:11:27.471Z,32
2018-09-05T13:12:28.046Z,36
2018-09-05T13:13:28.781Z,36
2018-09-05T13:14:29.369Z,32
2018-09-05T13:15:29.955Z,36
2018-09-05T13:16:30.593Z,36
2018-09-05T13:17:31.175Z,36
2018-09-05T13:18:31.761Z,32
2018-09-05T13:19:32.350Z,36
2018-09-05T13:20:32.932Z,36
2018-09-05T13:21:33.518Z,36
2018-09-05T13:22:34.143Z,40
2018-09-05T13:23:34.784Z,28
2018-09-05T13:24:35.371Z,40
2018-09-05T13:25:35.961Z,40
2018-09-05T13:26:36.617Z,40
2018-09-05T13:27:37.135Z,32
2018-09-05T13:28:37.723Z,28
2018-09-05T13:29:38.404Z,36
2018-09-05T13:30:39.042Z,44
2018-09-05T13:31:39.778Z,44
2018-09-05T13:32:40.368Z,40
2018-09-05T13:33:40.950Z,44
2018-09-05T13:34:41.541Z,40
2018-09-05T13:35:42.135Z,40
2018-09-05T13:36:42.756Z,40
2018-09-05T13:37:43.342Z,40
2018-09-05T13:38:43.933Z,44
2018-09-05T13:39:44.516Z,44
2018-09-05T13:40:45.099Z,40
2018-09-05T13:41:45.692Z,44
2018-09-05T13:42:46.279Z,40
2018-09-05T13:43:46.864Z,40
2018-09-05T13:44:47.454Z,44
2018-09-05T13:45:48.043Z,48
2018-09-05T13:46:48.632Z,44
2018-09-05T13:47:49.264Z,44
2018-09-05T13:48:49.904Z,40
2018-09-05T13:49:50.486Z,48
2018-09-05T13:50:51.078Z,48
2018-09-05T13:51:51.665Z,36
2018-09-05T13:52:52.251Z,36
2018-09-05T13:53:52.888Z,40
2018-09-05T13:54:53.467Z,40
2018-09-05T13:55:54.054Z,52
2018-09-05T13:56:54.638Z,48
2018-09-05T13:57:55.224Z,40
2018-09-05T13:58:55.811Z,32
2018-09-05T13:59:56.394Z,40
2018-09-05T14:00:56.985Z,32
2018-09-05T14:01:57.571Z,32
2018-09-05T14:02:58.201Z,32
2018-09-05T14:03:58.791Z,32
2018-09-05T14:04:59.376Z,32
2018-09-05T14:06:00.015Z,32
2018-09-05T14:07:00.646Z,32
2018-09-05T14:08:01.234Z,28
2018-09-05T14:09:01.817Z,32
2018-09-05T14:10:02.399Z,32
2018-09-05T14:11:02.985Z,36
2018-09-05T14:12:03.625Z,40
2018-09-05T14:13:04.211Z,36
2018-09-05T14:14:04.799Z,48
2018-09-05T14:15:05.389Z,36
2018-09-05T14:16:06.024Z,36
2018-09-05T14:17:06.613Z,56
2018-09-05T14:18:07.199Z,44
2018-09-05T14:19:07.778Z,40
2018-09-05T14:20:08.363Z,36
2018-09-05T14:21:08.950Z,40
2018-09-05T14:22:09.545Z,40
2018-09-05T14:23:10.277Z,40
2018-09-05T14:24:11.010Z,36
2018-09-05T14:25:11.599Z,32
2018-09-05T14:26:12.183Z,36
2018-09-05T14:27:12.821Z,36
2018-09-05T14:28:13.411Z,40
2018-09-05T14:29:13.997Z,44
2018-09-05T14:30:14.584Z,40
2018-09-05T14:31:15.169Z,40
2018-09-05T14:32:15.759Z,44
2018-09-05T14:33:16.394Z,56
2018-09-05T14:34:16.935Z,52
2018-09-05T14:35:17.515Z,44
2018-09-05T14:36:18.102Z,48
2018-09-05T14:37:18.685Z,52
2018-09-05T14:38:19.275Z,44
2018-09-05T14:39:19.862Z,40
2018-09-05T14:40:20.451Z,44
2018-09-05T14:41:21.033Z,48
2018-09-05T14:42:21.618Z,44
2018-09-05T14:43:22.255Z,48